Time;durP1;ratioP1;P1;durP2;ratioP2;P2;SDS_P1;SDS_P2;PMS_P1;PMS_P2;Temp;Humidity;BMP_temperature;BMP_pressure;BME280_temperature;BME280_humidity;BME280_pressure;Samples;Min_cycle;Max_cycle;Signal;HPM_P1;HPM_P2
2023/03/31 00:00:45;;;;;;;31.23;4.82;;;11.60;99.90;;;;;;5091719;28;20490;-71
2023/03/31 00:03:12;;;;;;;17.63;2.85;;;11.60;99.90;;;;;;5093304;28;20111;-70
2023/03/31 00:05:38;;;;;;;19.70;3.45;;;11.60;99.90;;;;;;5092159;28;20043;-70
2023/03/31 00:08:04;;;;;;;23.55;4.05;;;11.60;99.90;;;;;;5082700;28;20044;-71
2023/03/31 00:10:32;;;;;;;21.52;3.72;;;11.60;99.90;;;;;;5092197;28;20032;-71
2023/03/31 00:12:59;;;;;;;24.85;3.78;;;11.60;99.90;;;;;;5093372;28;20032;-71
2023/03/31 00:15:25;;;;;;;22.33;4.18;;;11.50;99.90;;;;;;5088071;28;20054;-69
2023/03/31 00:17:50;;;;;;;23.13;3.90;;;11.50;99.90;;;;;;5089290;28;20028;-70
2023/03/31 00:20:16;;;;;;;20.73;3.50;;;11.60;99.90;;;;;;5091878;28;20365;-69
2023/03/31 00:22:45;;;;;;;24.25;3.55;;;11.50;99.90;;;;;;5093637;28;20028;-70
2023/03/31 00:25:12;;;;;;;22.13;3.63;;;11.60;99.90;;;;;;5092622;28;20048;-70
2023/03/31 00:27:40;;;;;;;24.90;3.70;;;11.60;99.90;;;;;;5093333;28;20139;-69
2023/03/31 00:30:07;;;;;;;25.30;4.22;;;11.60;99.90;;;;;;5090687;28;20055;-69
2023/03/31 00:32:33;;;;;;;19.30;4.32;;;11.60;99.90;;;;;;5091957;28;20032;-70
2023/03/31 00:35:01;;;;;;;18.58;3.67;;;11.50;99.90;;;;;;5093072;28;20077;-69
2023/03/31 00:37:27;;;;;;;22.95;4.13;;;11.50;99.90;;;;;;5091310;28;20421;-70
2023/03/31 00:39:52;;;;;;;26.70;4.28;;;11.50;99.90;;;;;;5081837;28;20031;-70
2023/03/31 00:42:18;;;;;;;28.38;4.88;;;11.50;99.90;;;;;;5089621;28;20035;-68
2023/03/31 00:45:17;;;;;;;25.25;3.85;;;11.50;99.90;;;;;;5093357;28;20036;-70
2023/03/31 00:47:49;;;;;;;26.38;5.05;;;11.50;99.90;;;;;;5078599;28;20040;-70
2023/03/31 00:50:19;;;;;;;20.80;3.72;;;11.40;99.90;;;;;;5093332;28;20020;-68
2023/03/31 00:52:49;;;;;;;23.10;3.55;;;11.50;99.90;;;;;;5092078;28;20028;-69
2023/03/31 00:55:20;;;;;;;25.30;4.25;;;11.50;99.90;;;;;;5093282;28;20111;-69
2023/03/31 00:57:47;;;;;;;22.13;3.53;;;11.40;99.90;;;;;;5087033;28;20024;-71
2023/03/31 01:00:15;;;;;;;18.73;4.10;;;11.40;99.90;;;;;;5092827;28;20461;-69
2023/03/31 01:02:45;;;;;;;12.55;2.25;;;11.40;99.90;;;;;;5090632;28;20024;-70
2023/03/31 01:05:11;;;;;;;20.83;3.13;;;11.50;99.90;;;;;;5092658;28;20039;-68
2023/03/31 01:07:45;;;;;;;20.25;3.10;;;11.50;99.90;;;;;;5092879;28;20036;-67
2023/03/31 01:10:11;;;;;;;19.35;2.95;;;11.50;99.90;;;;;;5093119;28;20380;-67
2023/03/31 01:12:44;;;;;;;22.75;3.67;;;11.30;99.90;;;;;;5092103;28;20032;-67
2023/03/31 01:15:10;;;;;;;17.20;2.90;;;11.30;99.90;;;;;;5090000;28;20531;-67
2023/03/31 01:17:36;;;;;;;18.52;3.33;;;11.10;99.90;;;;;;5090555;28;20016;-68
2023/03/31 01:20:13;;;;;;;17.00;3.03;;;11.00;99.90;;;;;;5079945;28;20028;-68
2023/03/31 01:22:50;;;;;;;13.02;3.50;;;10.90;99.90;;;;;;5091608;28;20028;-69
2023/03/31 01:25:53;;;;;;;25.25;4.75;;;10.80;99.90;;;;;;5092819;28;20055;-67
2023/03/31 01:28:31;;;;;;;14.93;2.53;;;10.70;99.90;;;;;;5093016;28;20095;-69
2023/03/31 01:31:18;;;;;;;16.88;3.42;;;10.70;99.90;;;;;;5086513;28;20028;-68
2023/03/31 01:34:16;;;;;;;19.95;4.00;;;10.70;99.90;;;;;;5077434;28;20036;-69
2023/03/31 01:37:22;;;;;;;16.63;4.22;;;10.70;99.90;;;;;;5092867;28;20032;-69
2023/03/31 01:40:18;;;;;;;18.15;3.75;;;10.70;99.90;;;;;;4999605;28;20569;-68
2023/03/31 01:42:52;;;;;;;23.67;5.03;;;10.70;99.90;;;;;;5087007;28;20647;-68
2023/03/31 01:45:21;;;;;;;23.05;3.65;;;10.70;99.90;;;;;;5090407;28;20034;-68
2023/03/31 01:48:13;;;;;;;19.88;3.83;;;10.70;99.90;;;;;;5080865;28;20036;-68
2023/03/31 01:50:56;;;;;;;19.27;5.50;;;10.70;99.90;;;;;;5090963;28;20055;-69
2023/03/31 01:53:32;;;;;;;20.08;3.38;;;10.70;99.90;;;;;;5090405;28;20115;-68
2023/03/31 01:56:17;;;;;;;22.65;4.32;;;10.70;99.90;;;;;;5092248;28;20046;-67
2023/03/31 01:59:08;;;;;;;19.50;4.82;;;10.70;99.90;;;;;;5092313;28;20036;-68
2023/03/31 02:01:40;;;;;;;26.48;5.07;;;10.70;99.90;;;;;;5047464;28;20044;-68
2023/03/31 02:04:16;;;;;;;;;;;10.70;99.90;;;;;;5096608;28;20028;-69
2023/03/31 02:06:48;;;;;;;29.88;5.47;;;10.70;99.90;;;;;;5099481;28;20002;-68
2023/03/31 02:09:19;;;;;;;22.73;5.55;;;10.70;99.90;;;;;;5090728;28;20522;-68
2023/03/31 02:11:47;;;;;;;17.05;4.88;;;10.70;99.90;;;;;;5080325;28;20032;-67
2023/03/31 02:14:20;;;;;;;22.50;5.60;;;10.70;99.90;;;;;;5091951;28;20080;-68
2023/03/31 02:16:56;;;;;;;16.90;5.25;;;10.70;99.90;;;;;;5090976;28;20497;-68
2023/03/31 02:19:26;;;;;;;18.40;5.57;;;10.70;99.90;;;;;;5089774;28;20036;-68
2023/03/31 02:21:53;;;;;;;22.30;6.40;;;10.70;99.90;;;;;;5090572;28;20550;-68
2023/03/31 02:24:22;;;;;;;18.67;6.03;;;10.80;99.90;;;;;;5091517;28;20032;-69
2023/03/31 02:26:53;;;;;;;24.35;7.50;;;10.80;99.90;;;;;;5091728;28;20040;-68
2023/03/31 02:29:19;;;;;;;15.90;5.07;;;10.80;99.90;;;;;;5084938;28;20120;-69
2023/03/31 02:31:51;;;;;;;19.58;6.55;;;10.80;99.90;;;;;;5082368;28;20031;-69
2023/03/31 02:34:16;;;;;;;20.02;5.93;;;10.90;99.90;;;;;;5091639;28;20027;-69
2023/03/31 02:36:44;;;;;;;19.02;5.97;;;10.80;99.90;;;;;;5091638;28;20032;-68
2023/03/31 02:39:14;;;;;;;16.63;4.78;;;10.90;99.90;;;;;;5090994;28;20567;-68
2023/03/31 02:41:40;;;;;;;18.38;5.38;;;10.90;99.90;;;;;;5081331;28;20036;-68
2023/03/31 02:44:05;;;;;;;15.07;3.53;;;10.80;99.90;;;;;;5090061;28;20024;-68
2023/03/31 02:46:32;;;;;;;16.20;3.92;;;10.80;99.90;;;;;;5089935;28;20055;-68
2023/03/31 02:49:00;;;;;;;13.77;4.45;;;10.80;99.90;;;;;;5086364;28;20020;-69
2023/03/31 02:51:56;;;;;;;11.25;4.07;;;10.80;99.90;;;;;;5087631;28;20032;-69
2023/03/31 02:54:52;;;;;;;14.32;4.35;;;10.70;99.90;;;;;;5083815;28;20483;-69
2023/03/31 02:57:28;;;;;;;18.25;5.68;;;10.80;99.90;;;;;;5084743;28;20043;-70
2023/03/31 03:00:07;;;;;;;22.40;5.55;;;10.80;99.90;;;;;;5093474;28;20456;-70
2023/03/31 03:03:15;;;;;;;17.58;5.30;;;10.80;99.90;;;;;;5092553;28;20372;-70
2023/03/31 03:05:48;;;;;;;21.73;5.63;;;10.80;99.90;;;;;;5091974;28;20406;-70
2023/03/31 03:08:36;;;;;;;21.52;6.10;;;10.80;99.90;;;;;;5093845;28;20032;-70
2023/03/31 03:11:20;;;;;;;13.80;5.00;;;10.80;99.90;;;;;;5090516;28;20081;-70
2023/03/31 03:14:04;;;;;;;17.15;6.22;;;10.80;99.90;;;;;;5092178;28;20057;-70
2023/03/31 03:16:42;;;;;;;21.85;6.10;;;10.80;99.90;;;;;;5091667;28;20036;-69
2023/03/31 03:19:08;;;;;;;23.45;6.22;;;10.80;99.90;;;;;;5092550;28;20081;-69
2023/03/31 03:21:34;;;;;;;23.05;4.88;;;10.80;99.90;;;;;;5092665;28;20032;-70
2023/03/31 03:24:00;;;;;;;20.25;6.25;;;10.80;99.90;;;;;;5093165;28;20035;-69
2023/03/31 03:26:29;;;;;;;14.77;4.53;;;10.80;99.90;;;;;;5092972;28;20119;-68
2023/03/31 03:28:56;;;;;;;18.05;4.50;;;10.80;99.90;;;;;;5092314;28;20119;-68
2023/03/31 03:31:22;;;;;;;20.40;5.20;;;10.80;99.90;;;;;;5092184;28;20111;-68
2023/03/31 03:33:49;;;;;;;19.17;5.00;;;10.80;99.90;;;;;;5090661;28;20383;-69
2023/03/31 03:36:15;;;;;;;15.70;4.25;;;10.80;99.90;;;;;;5093716;28;20127;-69
2023/03/31 03:38:40;;;;;;;18.58;4.30;;;10.80;99.90;;;;;;5092933;28;20120;-69
2023/03/31 03:41:06;;;;;;;12.38;3.65;;;10.80;99.90;;;;;;5091907;28;20026;-69
2023/03/31 03:43:32;;;;;;;16.27;3.88;;;10.80;99.90;;;;;;5093628;28;20046;-68
2023/03/31 03:45:58;;;;;;;15.68;4.85;;;10.80;99.90;;;;;;5093169;28;20440;-67
2023/03/31 03:48:23;;;;;;;22.00;5.32;;;10.80;99.90;;;;;;5093323;28;20077;-68
2023/03/31 03:50:49;;;;;;;14.15;4.75;;;10.70;99.90;;;;;;5087825;28;20024;-68
2023/03/31 03:53:15;;;;;;;19.95;4.60;;;10.80;99.90;;;;;;5093124;28;20069;-68
2023/03/31 03:55:41;;;;;;;14.25;4.20;;;10.80;99.90;;;;;;5091349;28;20032;-68
2023/03/31 03:58:07;;;;;;;12.65;3.38;;;10.80;99.90;;;;;;5092472;28;20028;-69
2023/03/31 04:00:32;;;;;;;16.02;4.90;;;10.80;99.90;;;;;;5093205;28;20103;-68
2023/03/31 04:02:58;;;;;;;13.55;4.35;;;10.70;99.90;;;;;;5092840;28;20059;-68
2023/03/31 04:05:24;;;;;;;19.15;6.55;;;10.70;99.90;;;;;;5091252;28;20033;-68
2023/03/31 04:07:49;;;;;;;24.13;7.80;;;10.70;99.90;;;;;;5091650;28;20062;-69
2023/03/31 04:10:15;;;;;;;10.70;3.55;;;10.70;99.90;;;;;;5092370;28;20024;-69
2023/03/31 04:12:40;;;;;;;14.75;4.32;;;10.70;99.90;;;;;;5091829;28;20403;-68
2023/03/31 04:15:07;;;;;;;12.85;3.88;;;10.60;99.90;;;;;;5093017;28;20031;-68
2023/03/31 04:17:33;;;;;;;14.55;4.28;;;10.60;99.90;;;;;;5091409;28;20032;-69
2023/03/31 04:20:10;;;;;;;12.85;3.55;;;10.60;99.90;;;;;;5092287;28;20536;-69
2023/03/31 04:22:39;;;;;;;17.25;3.85;;;10.60;99.90;;;;;;5085175;28;20039;-69
2023/03/31 04:25:15;;;;;;;14.52;3.92;;;10.60;99.90;;;;;;5084142;28;20816;-69
2023/03/31 04:27:54;;;;;;;13.98;5.38;;;10.60;99.90;;;;;;5092962;28;20039;-68
2023/03/31 04:30:24;;;;;;;22.95;4.28;;;10.60;99.90;;;;;;5093792;28;20043;-68
2023/03/31 04:32:54;;;;;;;17.05;4.38;;;10.60;99.90;;;;;;5089229;28;20463;-69
2023/03/31 04:35:22;;;;;;;14.20;3.50;;;10.60;99.90;;;;;;5093565;28;20032;-69
2023/03/31 04:37:51;;;;;;;16.83;3.88;;;10.60;99.90;;;;;;5092646;28;20060;-68
2023/03/31 04:40:17;;;;;;;13.00;3.80;;;10.60;99.90;;;;;;5093950;28;20094;-68
2023/03/31 04:42:44;;;;;;;23.42;5.07;;;10.50;99.90;;;;;;5085287;28;20131;-68
2023/03/31 04:45:11;;;;;;;13.18;4.32;;;10.60;99.90;;;;;;5091447;28;20032;-68
2023/03/31 04:47:37;;;;;;;15.43;5.20;;;10.50;99.90;;;;;;5093528;28;20040;-69
2023/03/31 04:50:04;;;;;;;17.30;5.57;;;10.50;99.90;;;;;;5093351;28;20047;-68
2023/03/31 04:52:29;;;;;;;16.17;5.10;;;10.50;99.90;;;;;;5091954;28;20024;-68
2023/03/31 04:54:55;;;;;;;16.15;5.00;;;10.60;99.90;;;;;;5093354;28;20072;-68
2023/03/31 04:57:20;;;;;;;13.25;4.88;;;10.50;99.90;;;;;;5091898;28;20474;-68
2023/03/31 04:59:46;;;;;;;13.88;4.70;;;10.50;99.90;;;;;;5089283;28;20037;-68
2023/03/31 05:02:12;;;;;;;15.20;6.03;;;10.50;99.90;;;;;;5081790;28;20020;-69
2023/03/31 05:04:37;;;;;;;16.20;5.25;;;10.50;99.90;;;;;;5090561;28;20108;-68
2023/03/31 05:07:03;;;;;;;20.15;6.03;;;10.50;99.90;;;;;;5093001;28;20036;-69
2023/03/31 05:09:28;;;;;;;19.90;6.72;;;10.50;99.90;;;;;;5092481;28;20056;-69
2023/03/31 05:11:55;;;;;;;15.20;6.50;;;10.50;99.90;;;;;;5092110;28;20035;-69
2023/03/31 05:14:20;;;;;;;16.40;5.20;;;10.60;99.90;;;;;;5092766;28;20472;-69
2023/03/31 05:16:46;;;;;;;20.92;7.47;;;10.60;99.90;;;;;;5088298;28;20050;-69
2023/03/31 05:19:12;;;;;;;17.75;6.38;;;10.50;99.90;;;;;;5092731;28;20391;-70
2023/03/31 05:21:37;;;;;;;18.15;6.30;;;10.60;99.90;;;;;;5091743;28;20032;-68
2023/03/31 05:24:03;;;;;;;22.10;7.85;;;10.60;99.90;;;;;;5092837;28;20051;-69
2023/03/31 05:26:29;;;;;;;17.30;7.45;;;10.60;99.90;;;;;;5091857;28;20507;-69
2023/03/31 05:28:55;;;;;;;15.98;5.35;;;10.60;99.90;;;;;;5092490;28;20138;-69
2023/03/31 05:31:21;;;;;;;14.38;4.43;;;10.60;99.90;;;;;;5091536;28;20028;-69
2023/03/31 05:33:46;;;;;;;18.58;6.20;;;10.60;99.90;;;;;;5084107;28;20066;-67
2023/03/31 05:36:14;;;;;;;20.20;5.60;;;10.60;99.90;;;;;;5092072;28;20051;-71
2023/03/31 05:38:40;;;;;;;12.35;4.75;;;10.60;99.90;;;;;;5092842;28;20032;-68
2023/03/31 05:41:08;;;;;;;16.25;6.80;;;10.60;99.90;;;;;;5087971;28;20035;-68
2023/03/31 05:43:34;;;;;;;20.27;6.25;;;10.60;99.90;;;;;;5078607;28;20388;-69
2023/03/31 05:46:00;;;;;;;13.23;5.25;;;10.60;99.90;;;;;;5092537;28;20046;-70
2023/03/31 05:48:26;;;;;;;15.30;5.32;;;10.60;99.90;;;;;;5091529;28;20079;-71
2023/03/31 05:50:56;;;;;;;22.90;6.72;;;10.60;99.90;;;;;;5085814;28;20061;-70
2023/03/31 05:53:22;;;;;;;12.90;4.00;;;10.60;99.90;;;;;;5092694;28;20036;-69
2023/03/31 05:55:47;;;;;;;17.90;5.82;;;10.60;99.90;;;;;;5091124;28;20492;-68
2023/03/31 05:58:13;;;;;;;13.38;4.45;;;10.60;99.90;;;;;;5092126;28;20460;-69
2023/03/31 06:00:39;;;;;;;17.02;4.45;;;10.60;99.90;;;;;;5089973;28;20032;-68
2023/03/31 06:03:06;;;;;;;18.95;5.43;;;10.60;99.90;;;;;;5092378;28;20028;-70
2023/03/31 06:05:33;;;;;;;13.20;3.72;;;10.60;99.90;;;;;;5092297;28;20034;-70
2023/03/31 06:07:59;;;;;;;18.45;6.05;;;10.70;99.90;;;;;;5089502;28;20404;-69
2023/03/31 06:10:24;;;;;;;9.98;4.05;;;10.70;99.90;;;;;;5085765;28;20028;-69
2023/03/31 06:12:50;;;;;;;8.18;3.33;;;10.70;99.90;;;;;;5091418;28;20507;-70
2023/03/31 06:15:16;;;;;;;12.90;4.30;;;10.70;99.90;;;;;;5091859;28;20024;-70
2023/03/31 06:17:41;;;;;;;14.52;4.75;;;10.60;99.90;;;;;;5092317;28;20052;-69
2023/03/31 06:20:08;;;;;;;10.93;4.75;;;10.60;99.90;;;;;;5089405;28;20024;-70
2023/03/31 06:22:33;;;;;;;13.88;5.20;;;10.60;99.90;;;;;;5091474;28;20024;-70
2023/03/31 06:24:59;;;;;;;16.13;4.70;;;10.60;99.90;;;;;;5091841;28;20082;-69
2023/03/31 06:27:24;;;;;;;13.23;4.40;;;10.60;99.90;;;;;;5090353;28;20042;-69
2023/03/31 06:29:50;;;;;;;11.90;4.35;;;10.60;99.90;;;;;;5090921;28;20024;-69
2023/03/31 06:32:15;;;;;;;15.93;4.80;;;10.60;99.90;;;;;;5085560;28;20024;-69
2023/03/31 06:34:41;;;;;;;7.30;3.00;;;10.70;99.90;;;;;;5095841;28;20024;-70
2023/03/31 06:37:06;;;;;;;12.18;4.30;;;10.70;99.90;;;;;;5095886;28;20028;-69
2023/03/31 06:39:32;;;;;;;9.75;3.35;;;10.60;99.90;;;;;;5094760;28;20110;-69
2023/03/31 06:41:58;;;;;;;7.10;2.25;;;10.60;99.90;;;;;;5092625;28;20024;-70
2023/03/31 06:44:23;;;;;;;17.75;4.40;;;10.60;99.90;;;;;;5086636;28;20032;-70
2023/03/31 06:46:49;;;;;;;8.90;3.33;;;10.60;99.90;;;;;;5095994;28;20020;-70
2023/03/31 06:49:15;;;;;;;17.50;3.90;;;10.70;99.90;;;;;;5094761;28;20375;-71
2023/03/31 06:51:40;;;;;;;9.85;3.22;;;10.60;99.90;;;;;;5094833;28;20387;-69
2023/03/31 06:54:06;;;;;;;6.68;2.90;;;10.70;99.90;;;;;;5095539;28;20081;-70
2023/03/31 06:56:32;;;;;;;14.25;3.05;;;10.60;99.90;;;;;;5094338;28;20107;-70
2023/03/31 06:58:57;;;;;;;11.43;3.22;;;10.60;99.90;;;;;;5095087;28;20451;-70
2023/03/31 07:01:23;;;;;;;6.97;2.60;;;10.60;99.90;;;;;;5090833;28;20024;-70
2023/03/31 07:03:48;;;;;;;6.22;2.80;;;10.60;99.90;;;;;;5095592;28;20379;-69
2023/03/31 07:06:14;;;;;;;9.82;3.72;;;10.60;99.90;;;;;;5095317;28;20030;-70
2023/03/31 07:08:39;;;;;;;10.85;3.25;;;10.60;99.90;;;;;;5095083;28;20113;-69
2023/03/31 07:11:05;;;;;;;9.93;3.00;;;10.60;99.90;;;;;;5093522;28;20456;-69
2023/03/31 07:13:31;;;;;;;6.90;1.98;;;10.70;99.90;;;;;;5094241;28;20031;-69
2023/03/31 07:15:57;;;;;;;9.07;2.75;;;10.70;99.90;;;;;;5094654;28;20023;-69
2023/03/31 07:18:31;;;;;;;9.40;3.35;;;10.70;99.90;;;;;;5089749;28;20036;-68
2023/03/31 07:20:56;;;;;;;10.93;3.83;;;10.70;99.90;;;;;;5093493;28;20089;-69
2023/03/31 07:23:23;;;;;;;9.60;2.70;;;10.80;99.90;;;;;;5095449;28;20028;-69
2023/03/31 07:25:48;;;;;;;8.65;3.00;;;10.90;99.90;;;;;;5092804;28;20131;-69
2023/03/31 07:28:15;;;;;;;8.88;2.75;;;10.90;99.90;;;;;;5092034;28;20123;-69
2023/03/31 07:30:41;;;;;;;5.85;2.53;;;10.90;99.90;;;;;;5093609;28;20035;-69
2023/03/31 07:33:07;;;;;;;7.60;2.53;;;11.00;99.90;;;;;;5093460;28;20024;-69
2023/03/31 07:35:32;;;;;;;10.57;2.80;;;11.00;99.90;;;;;;5092305;28;20036;-69
2023/03/31 07:37:58;;;;;;;10.00;2.67;;;10.90;99.90;;;;;;5094484;28;20157;-69
2023/03/31 07:40:26;;;;;;;13.40;4.32;;;11.00;99.90;;;;;;5093136;28;20116;-69
2023/03/31 07:42:52;;;;;;;14.55;3.83;;;11.00;99.90;;;;;;5094015;28;20109;-69
2023/03/31 07:45:24;;;;;;;10.95;3.15;;;11.00;99.90;;;;;;5094137;28;20027;-69
2023/03/31 07:47:50;;;;;;;8.52;2.10;;;11.00;99.90;;;;;;5094797;28;20040;-69
2023/03/31 07:50:16;;;;;;;7.30;2.85;;;11.00;99.90;;;;;;5093552;28;20047;-69
2023/03/31 07:52:42;;;;;;;14.38;3.92;;;11.10;99.90;;;;;;5092311;28;20031;-69
2023/03/31 07:55:09;;;;;;;10.25;3.33;;;11.20;99.90;;;;;;5093958;28;20024;-69
2023/03/31 07:57:35;;;;;;;13.05;4.20;;;11.20;99.90;;;;;;5092813;28;20038;-68
2023/03/31 08:00:06;;;;;;;10.63;3.30;;;11.40;99.90;;;;;;5094390;28;20024;-68
2023/03/31 08:02:31;;;;;;;11.30;3.65;;;11.50;99.90;;;;;;5093032;28;20032;-68
2023/03/31 08:04:57;;;;;;;9.32;3.67;;;11.60;99.90;;;;;;5094417;28;20097;-69
2023/03/31 08:07:24;;;;;;;11.88;3.40;;;11.70;99.90;;;;;;5094486;28;20064;-68
2023/03/31 08:09:50;;;;;;;8.70;3.72;;;11.70;99.90;;;;;;5093725;28;20040;-68
2023/03/31 08:12:15;;;;;;;13.23;3.85;;;11.80;99.90;;;;;;5085397;28;20028;-68
2023/03/31 08:14:41;;;;;;;10.48;3.38;;;11.80;99.90;;;;;;5094453;28;20447;-69
2023/03/31 08:17:07;;;;;;;10.55;4.35;;;11.80;99.90;;;;;;5094307;28;20024;-69
2023/03/31 08:19:33;;;;;;;4.38;2.40;;;11.80;99.90;;;;;;5093388;28;20068;-69
2023/03/31 08:21:59;;;;;;;13.90;4.30;;;11.90;99.90;;;;;;5092894;28;20047;-69
2023/03/31 08:24:25;;;;;;;11.88;3.65;;;11.90;99.90;;;;;;5093272;28;20407;-69
2023/03/31 08:26:51;;;;;;;7.07;2.38;;;12.00;99.90;;;;;;5091596;28;20035;-68
2023/03/31 08:29:16;;;;;;;10.95;3.55;;;12.00;99.90;;;;;;5092476;28;20028;-69
2023/03/31 08:31:42;;;;;;;16.50;3.70;;;12.10;99.90;;;;;;5082948;28;20047;-69
2023/03/31 08:34:08;;;;;;;10.57;3.28;;;12.20;99.90;;;;;;5084477;28;20031;-69
2023/03/31 08:36:33;;;;;;;12.40;3.20;;;12.40;99.90;;;;;;5093225;28;20103;-69
2023/03/31 08:38:59;;;;;;;11.68;3.30;;;12.50;99.90;;;;;;5090373;28;20028;-69
2023/03/31 08:41:31;;;;;;;14.63;2.75;;;12.60;99.90;;;;;;5088267;28;20032;-69
2023/03/31 08:44:01;;;;;;;16.13;3.70;;;12.60;99.90;;;;;;5086872;28;20022;-69
2023/03/31 08:46:29;;;;;;;14.05;3.08;;;12.70;99.90;;;;;;5093269;28;20028;-69
2023/03/31 08:48:57;;;;;;;9.30;3.00;;;12.80;99.90;;;;;;5090763;28;20047;-69
2023/03/31 08:51:54;;;;;;;9.98;2.75;;;13.00;99.90;;;;;;5092011;28;20157;-69
2023/03/31 08:54:31;;;;;;;13.77;3.78;;;13.30;99.90;;;;;;5081676;28;20558;-69
2023/03/31 08:56:56;;;;;;;14.32;3.03;;;13.60;99.90;;;;;;5093174;28;20035;-69
2023/03/31 08:59:36;;;;;;;14.65;3.00;;;13.90;99.90;;;;;;5090749;28;20024;-68
2023/03/31 09:02:22;;;;;;;12.02;2.92;;;14.00;99.90;;;;;;5086356;28;20031;-69
2023/03/31 09:05:10;;;;;;;9.48;2.85;;;14.10;99.90;;;;;;5092728;28;20120;-69
2023/03/31 09:08:02;;;;;;;10.00;2.17;;;14.10;99.90;;;;;;5082960;28;20024;-69
2023/03/31 09:10:44;;;;;;;8.70;2.47;;;13.90;99.90;;;;;;5084585;28;20036;-69
2023/03/31 09:13:23;;;;;;;16.77;4.65;;;13.70;99.90;;;;;;5091067;28;20118;-70
2023/03/31 09:16:01;;;;;;;9.85;3.17;;;13.50;99.90;;;;;;5090082;28;20105;-70
2023/03/31 09:18:45;;;;;;;15.93;3.72;;;13.20;99.90;;;;;;5091383;28;20024;-70
2023/03/31 09:21:43;;;;;;;5.93;2.58;;;12.90;99.90;;;;;;5091529;28;20111;-69
2023/03/31 09:24:15;;;;;;;16.10;4.10;;;12.70;99.90;;;;;;5044044;28;20047;-70
2023/03/31 09:26:57;;;;;;;16.02;4.15;;;12.40;99.90;;;;;;5092248;28;20032;-70
2023/03/31 09:29:30;;;;;;;20.52;4.88;;;12.30;99.90;;;;;;5091075;28;20040;-71
2023/03/31 09:32:01;;;;;;;18.08;5.57;;;12.10;99.90;;;;;;5089515;28;20063;-71
2023/03/31 09:34:33;;;;;;;27.60;8.10;;;12.00;99.90;;;;;;5092248;28;20099;-71
2023/03/31 09:36:59;;;;;;;19.27;5.43;;;11.90;99.90;;;;;;5091267;28;20028;-71
2023/03/31 09:39:25;;;;;;;16.05;4.93;;;11.90;99.90;;;;;;5092159;28;20096;-71
2023/03/31 09:41:54;;;;;;;26.27;6.60;;;11.90;99.90;;;;;;5089523;28;20036;-70
2023/03/31 09:44:26;;;;;;;22.10;6.20;;;12.00;99.90;;;;;;5087477;28;20031;-70
2023/03/31 09:46:53;;;;;;;19.67;5.70;;;11.90;99.90;;;;;;5087892;28;20036;-70
2023/03/31 09:49:27;;;;;;;19.90;6.88;;;12.00;99.90;;;;;;5089394;28;20051;-70
2023/03/31 09:52:03;;;;;;;18.17;6.32;;;12.10;99.90;;;;;;5089547;28;20024;-70
2023/03/31 09:54:42;;;;;;;19.80;6.50;;;12.10;99.90;;;;;;5088728;28;20660;-71
2023/03/31 09:57:25;;;;;;;23.83;5.68;;;12.30;99.90;;;;;;5089584;28;20082;-70
2023/03/31 09:59:52;;;;;;;12.98;3.95;;;12.40;99.90;;;;;;5090242;28;20402;-69
2023/03/31 10:02:59;;;;;;;19.63;5.28;;;12.60;99.90;;;;;;5087164;28;20028;-69
2023/03/31 10:05:38;;;;;;;12.57;3.55;;;12.80;99.90;;;;;;5085673;28;20040;-69
2023/03/31 10:08:10;;;;;;;23.33;5.03;;;13.00;99.90;;;;;;5094385;28;20044;-69
2023/03/31 10:10:36;;;;;;;15.82;2.65;;;12.90;99.90;;;;;;5091755;28;20109;-71
2023/03/31 10:13:09;;;;;;;14.05;3.25;;;12.80;99.90;;;;;;5091673;28;20036;-70
2023/03/31 10:15:37;;;;;;;9.30;2.58;;;12.70;99.90;;;;;;5086772;28;20047;-71
2023/03/31 10:18:02;;;;;;;10.82;3.28;;;12.50;99.90;;;;;;5093925;28;20107;-71
2023/03/31 10:20:37;;;;;;;15.60;3.03;;;12.30;99.90;;;;;;5094451;28;20172;-70
2023/03/31 10:23:15;;;;;;;9.60;2.55;;;12.20;99.90;;;;;;5093986;28;20061;-71
2023/03/31 10:25:41;;;;;;;18.65;3.92;;;12.20;99.90;;;;;;5094787;28;20071;-70
2023/03/31 10:28:12;;;;;;;19.63;4.72;;;12.10;99.90;;;;;;5090668;28;20078;-72
2023/03/31 10:30:39;;;;;;;14.10;4.20;;;12.10;99.90;;;;;;5091567;28;20044;-73
2023/03/31 10:33:17;;;;;;;19.02;4.03;;;12.10;99.90;;;;;;5089310;28;20055;-73
2023/03/31 10:35:46;;;;;;;23.23;5.13;;;12.00;99.90;;;;;;5094147;28;20035;-71
2023/03/31 10:38:22;;;;;;;23.52;5.55;;;11.90;99.90;;;;;;5095326;28;20024;-71
2023/03/31 10:40:51;;;;;;;18.55;4.47;;;11.80;99.90;;;;;;5092362;28;20023;-71
2023/03/31 10:43:20;;;;;;;18.00;5.28;;;11.70;99.90;;;;;;5088508;28;20047;-70
2023/03/31 10:45:55;;;;;;;12.27;4.47;;;11.70;99.90;;;;;;5089366;28;20379;-71
2023/03/31 10:48:30;;;;;;;21.13;4.80;;;11.70;99.90;;;;;;5092080;28;20032;-71
2023/03/31 10:51:04;;;;;;;14.13;3.33;;;11.80;99.90;;;;;;5087617;28;20115;-71
2023/03/31 10:53:42;;;;;;;14.95;4.07;;;11.80;99.90;;;;;;5095311;28;20024;-71
2023/03/31 10:56:22;;;;;;;10.73;3.20;;;11.80;99.90;;;;;;5090423;28;20081;-71
2023/03/31 10:59:31;;;;;;;11.05;3.15;;;11.80;99.90;;;;;;5087576;28;20024;-70
2023/03/31 11:02:19;;;;;;;16.77;2.88;;;11.80;99.90;;;;;;5041854;28;20028;-70
2023/03/31 11:05:16;;;;;;;12.93;2.63;;;11.80;99.90;;;;;;5091897;28;20032;-70
2023/03/31 11:08:10;;;;;;;15.18;3.10;;;11.80;99.90;;;;;;5090424;28;20048;-70
2023/03/31 11:10:57;;;;;;;11.60;2.75;;;11.90;99.90;;;;;;5089142;28;20028;-71
2023/03/31 11:13:35;;;;;;;15.20;3.50;;;12.00;99.90;;;;;;5093135;28;20109;-71
2023/03/31 11:16:22;;;;;;;9.38;2.55;;;12.00;99.90;;;;;;5087552;28;20432;-70
2023/03/31 11:19:08;;;;;;;6.63;1.88;;;12.00;99.90;;;;;;5082259;28;20028;-70
2023/03/31 11:22:08;;;;;;;8.27;1.80;;;11.90;99.90;;;;;;5090955;28;20085;-70
2023/03/31 11:25:03;;;;;;;8.18;2.17;;;12.10;99.90;;;;;;5090989;28;20131;-69
2023/03/31 11:27:31;;;;;;;8.45;2.20;;;12.10;99.90;;;;;;5090349;28;20044;-69
2023/03/31 11:30:13;;;;;;;6.80;1.65;;;12.20;99.90;;;;;;5092059;28;20027;-69
2023/03/31 11:32:45;;;;;;;;;;;12.30;99.90;;;;;;5088605;28;20036;-70
2023/03/31 11:35:35;;;;;;;10.73;2.83;;;12.40;99.90;;;;;;5086842;28;19978;-69
2023/03/31 11:38:39;;;;;;;6.43;2.10;;;12.40;99.90;;;;;;5088439;28;20028;-69
2023/03/31 11:41:26;;;;;;;12.68;2.70;;;12.50;99.90;;;;;;5079993;28;20476;-69
2023/03/31 11:43:58;;;;;;;8.15;1.67;;;12.50;99.90;;;;;;5088355;28;20067;-69
2023/03/31 11:46:45;;;;;;;13.60;3.10;;;12.50;99.90;;;;;;5093793;28;20028;-69
2023/03/31 11:49:37;;;;;;;11.13;2.70;;;12.40;99.90;;;;;;5083586;28;20040;-70
2023/03/31 11:52:21;;;;;;;;;;;12.40;99.90;;;;;;5091027;28;20123;-70
2023/03/31 11:54:56;;;;;;;8.25;2.28;;;12.40;99.90;;;;;;5085634;28;19931;-71
2023/03/31 11:57:33;;;;;;;8.85;2.28;;;12.30;99.90;;;;;;5089253;28;20039;-71
2023/03/31 12:00:42;;;;;;;10.35;2.78;;;12.20;99.90;;;;;;5088189;28;20020;-72
2023/03/31 12:03:28;;;;;;;11.23;2.60;;;12.10;99.90;;;;;;5043238;28;20522;-73
2023/03/31 12:06:01;;;;;;;7.85;2.53;;;12.00;99.90;;;;;;5083676;28;20051;-72
2023/03/31 12:08:36;;;;;;;7.88;2.45;;;12.00;99.90;;;;;;5085375;28;20100;-71
2023/03/31 12:11:12;;;;;;;8.73;1.60;;;12.00;99.90;;;;;;5085559;28;20142;-72
2023/03/31 12:14:01;;;;;;;7.63;2.30;;;11.90;99.90;;;;;;5089478;28;20111;-71
2023/03/31 12:16:42;;;;;;;8.38;1.90;;;11.90;99.90;;;;;;5090495;28;20071;-73
2023/03/31 12:19:26;;;;;;;10.60;1.88;;;11.90;99.90;;;;;;5088524;28;20089;-72
2023/03/31 12:22:20;;;;;;;11.73;2.47;;;11.80;99.90;;;;;;5092637;28;20030;-73
2023/03/31 12:24:46;;;;;;;13.35;2.58;;;11.70;99.90;;;;;;5088312;28;20062;-72
2023/03/31 12:27:26;;;;;;;4.68;1.77;;;11.70;99.90;;;;;;5090893;28;20450;-72
2023/03/31 12:30:24;;;;;;;11.07;2.47;;;11.70;99.90;;;;;;5092535;28;20475;-72
2023/03/31 12:32:55;;;;;;;7.38;1.88;;;11.70;99.90;;;;;;5059476;28;20113;-70
2023/03/31 12:35:26;;;;;;;11.18;2.95;;;11.70;99.90;;;;;;5091491;28;20514;-71
2023/03/31 12:38:15;;;;;;;6.22;1.70;;;11.70;99.90;;;;;;5092894;28;20031;-70
2023/03/31 12:41:05;;;;;;;6.90;2.30;;;11.70;99.90;;;;;;5092584;28;20058;-71
2023/03/31 12:43:31;;;;;;;8.82;2.13;;;11.70;99.90;;;;;;5083433;28;20056;-71
2023/03/31 12:46:08;;;;;;;8.85;2.17;;;11.70;99.90;;;;;;5092314;28;20064;-70
2023/03/31 12:48:59;;;;;;;10.18;2.00;;;11.70;99.90;;;;;;5089297;28;20048;-71
2023/03/31 12:52:02;;;;;;;12.43;3.72;;;11.80;99.90;;;;;;5087106;28;20497;-71
2023/03/31 12:54:40;;;;;;;11.73;3.63;;;11.90;99.90;;;;;;5078573;28;20093;-72
2023/03/31 12:57:08;;;;;;;10.13;3.30;;;12.00;99.90;;;;;;5085159;28;20514;-72
2023/03/31 12:59:40;;;;;;;6.55;2.45;;;12.00;99.90;;;;;;5086931;28;20039;-71
2023/03/31 13:02:08;;;;;;;19.50;6.40;;;11.90;99.90;;;;;;5081989;28;20032;-72
2023/03/31 13:04:35;;;;;;;8.27;2.50;;;11.80;99.90;;;;;;5086324;28;20325;-72
2023/03/31 13:07:02;;;;;;;5.78;2.35;;;11.80;99.90;;;;;;5088607;28;20452;-71